createdAt,value
2022-10-22T00:00:40.958Z,6.30
2022-10-22T00:03:08.360Z,6.23
2022-10-22T00:05:36.500Z,6.43
2022-10-22T00:08:03.831Z,5.30
2022-10-22T00:10:31.684Z,5.27
2022-10-22T00:12:59.174Z,5.50
2022-10-22T00:15:26.943Z,5.50
2022-10-22T00:17:54.575Z,5.50
2022-10-22T00:20:22.843Z,4.70
2022-10-22T00:22:53.228Z,5.93
2022-10-22T00:25:21.037Z,5.63
2022-10-22T00:27:48.395Z,5.60
2022-10-22T00:30:15.944Z,5.60
2022-10-22T00:32:43.535Z,5.70
2022-10-22T00:35:11.180Z,5.73
2022-10-22T00:37:38.933Z,5.30
2022-10-22T00:40:07.786Z,4.90
2022-10-22T00:42:35.122Z,4.63
2022-10-22T00:45:11.444Z,5.57
2022-10-22T00:47:49.073Z,5.03
2022-10-22T00:50:25.474Z,5.27
2022-10-22T00:52:54.086Z,5.03
2022-10-22T00:55:23.047Z,5.70
2022-10-22T00:57:51.414Z,5.00
2022-10-22T01:00:19.076Z,5.43
2022-10-22T01:02:49.422Z,5.77
2022-10-22T01:05:17.386Z,4.77
2022-10-22T01:07:49.214Z,5.17
2022-10-22T01:10:20.123Z,5.00
2022-10-22T01:13:21.197Z,5.53
2022-10-22T01:16:08.890Z,5.30
2022-10-22T01:18:53.282Z,5.10
2022-10-22T01:21:25.182Z,5.43
2022-10-22T01:24:03.764Z,5.73
2022-10-22T01:26:56.101Z,5.43
2022-10-22T01:29:36.691Z,5.30
2022-10-22T01:32:17.261Z,5.13
2022-10-22T01:34:49.365Z,6.30
2022-10-22T01:37:19.805Z,5.77
2022-10-22T01:39:48.148Z,5.43
2022-10-22T01:42:15.942Z,5.50
2022-10-22T01:44:43.434Z,4.93
2022-10-22T01:47:38.526Z,5.30
2022-10-22T01:50:35.281Z,5.83
2022-10-22T01:53:26.394Z,5.30
2022-10-22T01:56:05.647Z,6.37
2022-10-22T01:58:59.055Z,6.13
2022-10-22T02:01:59.873Z,5.70
2022-10-22T02:04:50.555Z,5.07
2022-10-22T02:07:23.173Z,5.60
2022-10-22T02:09:53.154Z,6.37
2022-10-22T02:12:22.742Z,5.23
2022-10-22T02:14:52.137Z,4.60
2022-10-22T02:17:21.959Z,5.83
2022-10-22T02:20:03.354Z,5.80
2022-10-22T02:22:30.950Z,5.00
2022-10-22T02:24:58.377Z,6.03
2022-10-22T02:27:36.209Z,5.17
2022-10-22T02:30:08.476Z,4.67
2022-10-22T02:32:45.279Z,5.20
2022-10-22T02:35:17.253Z,4.80
2022-10-22T02:37:45.209Z,5.00
2022-10-22T02:40:13.395Z,4.50
2022-10-22T02:42:42.671Z,4.67
2022-10-22T02:45:10.794Z,4.73
2022-10-22T02:47:38.108Z,4.97
2022-10-22T02:50:09.524Z,4.87
2022-10-22T02:52:38.959Z,4.90
2022-10-22T02:55:07.549Z,4.60
2022-10-22T02:57:35.091Z,4.13
2022-10-22T03:00:02.426Z,4.40
2022-10-22T03:02:29.860Z,4.20
2022-10-22T03:04:57.954Z,4.50
2022-10-22T03:07:25.550Z,4.67
2022-10-22T03:09:53.186Z,4.20
2022-10-22T03:12:20.644Z,4.70
2022-10-22T03:14:47.986Z,3.80
2022-10-22T03:17:15.610Z,4.53
2022-10-22T03:19:43.239Z,4.60
2022-10-22T03:22:16.330Z,4.57
2022-10-22T03:24:46.159Z,5.03
2022-10-22T03:27:27.676Z,4.37
2022-10-22T03:29:56.593Z,4.50
2022-10-22T03:32:23.938Z,4.33
2022-10-22T03:34:51.608Z,3.73
2022-10-22T03:37:19.491Z,4.40
2022-10-22T03:39:46.936Z,3.90
2022-10-22T03:42:14.369Z,3.87
2022-10-22T03:44:42.114Z,4.27
2022-10-22T03:47:09.732Z,4.17
2022-10-22T03:49:37.073Z,4.30
2022-10-22T03:52:10.454Z,3.60
2022-10-22T03:57:06.812Z,3.83
2022-10-22T03:59:41.882Z,3.97
2022-10-22T04:02:10.569Z,4.10
2022-10-22T04:04:38.054Z,3.60
2022-10-22T04:07:06.474Z,4.07
2022-10-22T04:09:34.714Z,3.30
2022-10-22T04:12:02.296Z,3.80
2022-10-22T04:14:29.665Z,3.70
2022-10-22T04:16:57.144Z,3.70
2022-10-22T04:19:24.907Z,3.63
2022-10-22T04:21:52.236Z,3.90
2022-10-22T04:24:19.762Z,3.43
2022-10-22T04:26:47.093Z,3.50
2022-10-22T04:29:16.142Z,3.67
2022-10-22T04:31:44.246Z,3.17
2022-10-22T04:34:11.692Z,3.73
2022-10-22T04:36:39.050Z,3.93
2022-10-22T04:39:07.120Z,3.80
2022-10-22T04:41:39.411Z,3.50
2022-10-22T04:44:11.105Z,3.47
2022-10-22T04:46:43.726Z,3.40
2022-10-22T04:49:13.230Z,3.50
2022-10-22T04:51:40.586Z,3.70
2022-10-22T04:54:08.173Z,4.27
2022-10-22T04:56:36.688Z,3.50
2022-10-22T04:59:06.424Z,3.73
2022-10-22T05:01:39.957Z,3.20
2022-10-22T05:04:13.448Z,3.60
2022-10-22T05:06:41.529Z,3.57
2022-10-22T05:09:13.547Z,2.93
2022-10-22T05:11:45.364Z,3.20
2022-10-22T05:14:13.046Z,2.93
2022-10-22T05:16:40.501Z,2.93
2022-10-22T05:19:08.502Z,3.13
2022-10-22T05:21:37.757Z,2.83
2022-10-22T05:24:05.454Z,2.87
2022-10-22T05:26:33.151Z,2.87
2022-10-22T05:29:00.857Z,2.90
2022-10-22T05:31:28.908Z,2.83
2022-10-22T05:33:56.234Z,2.83
2022-10-22T05:36:23.906Z,3.10
2022-10-22T05:38:51.287Z,2.93
2022-10-22T05:41:21.342Z,2.73
2022-10-22T05:43:49.183Z,3.10
2022-10-22T05:46:22.467Z,2.87
2022-10-22T05:48:55.154Z,2.73
2022-10-22T05:51:24.385Z,2.80
2022-10-22T05:53:59.069Z,2.90
2022-10-22T05:56:31.026Z,3.20
2022-10-22T05:58:58.795Z,2.80
2022-10-22T06:01:29.161Z,3.27
2022-10-22T06:03:58.678Z,3.70
2022-10-22T06:06:38.607Z,3.43
2022-10-22T06:09:28.205Z,3.90
2022-10-22T06:11:56.305Z,3.20
2022-10-22T06:14:24.686Z,3.80
2022-10-22T06:16:52.725Z,3.80
2022-10-22T06:19:26.596Z,3.10
2022-10-22T06:21:56.652Z,3.30
2022-10-22T06:24:24.323Z,3.50
2022-10-22T06:26:52.393Z,3.47
2022-10-22T06:29:20.053Z,3.10
2022-10-22T06:31:47.693Z,3.53
2022-10-22T06:34:15.811Z,3.70
2022-10-22T06:36:44.645Z,3.67
2022-10-22T06:39:14.030Z,3.80
2022-10-22T06:41:41.397Z,3.70
2022-10-22T06:44:14.997Z,3.40
2022-10-22T06:46:43.900Z,3.50
2022-10-22T06:49:15.786Z,3.47
2022-10-22T06:51:43.388Z,3.57
2022-10-22T06:54:12.073Z,2.87
2022-10-22T06:56:39.578Z,3.93
2022-10-22T06:59:06.894Z,3.93
2022-10-22T07:01:36.191Z,3.97
2022-10-22T07:04:04.777Z,3.80
2022-10-22T07:06:32.450Z,3.43
2022-10-22T07:09:01.109Z,3.80
2022-10-22T07:11:32.006Z,3.60
2022-10-22T07:14:00.961Z,3.83
2022-10-22T07:16:31.282Z,4.13
2022-10-22T07:19:00.859Z,4.00
2022-10-22T07:21:28.938Z,3.80
2022-10-22T07:23:56.653Z,3.73
2022-10-22T07:26:25.732Z,4.07
2022-10-22T07:28:55.805Z,4.57
2022-10-22T07:31:23.686Z,3.87
2022-10-22T07:33:51.144Z,3.87
2022-10-22T07:36:19.177Z,3.40
2022-10-22T07:38:49.176Z,3.73
2022-10-22T07:41:17.241Z,3.97
2022-10-22T07:43:45.282Z,3.57
2022-10-22T07:46:12.686Z,3.47
2022-10-22T07:48:40.130Z,3.77
2022-10-22T07:51:07.757Z,3.87
2022-10-22T07:53:36.657Z,3.53
2022-10-22T07:56:04.619Z,3.87
2022-10-22T07:58:32.069Z,4.07
2022-10-22T08:01:01.915Z,5.37
2022-10-22T08:03:29.914Z,4.10
2022-10-22T08:05:57.744Z,4.47
2022-10-22T08:08:28.363Z,4.90
2022-10-22T08:11:01.105Z,3.40
2022-10-22T08:13:32.725Z,4.20
2022-10-22T08:16:01.071Z,3.63
2022-10-22T08:18:29.149Z,3.80
2022-10-22T08:20:57.159Z,4.10
2022-10-22T08:23:26.161Z,4.87
2022-10-22T08:25:57.195Z,4.50
2022-10-22T08:28:24.905Z,4.47
2022-10-22T08:30:53.038Z,4.30
2022-10-22T08:33:20.474Z,4.57
2022-10-22T08:35:52.154Z,4.97
2022-10-22T08:38:20.354Z,5.00
2022-10-22T08:40:52.377Z,4.43
2022-10-22T08:43:37.884Z,5.30
2022-10-22T08:46:34.063Z,6.37
2022-10-22T08:49:05.313Z,5.50
2022-10-22T08:51:40.424Z,5.43
2022-10-22T08:54:24.937Z,5.00
2022-10-22T08:57:09.068Z,5.63
2022-10-22T09:00:12.277Z,5.50
2022-10-22T09:03:07.561Z,5.10
2022-10-22T09:05:58.974Z,4.57
2022-10-22T09:08:29.083Z,5.40
2022-10-22T09:11:05.892Z,5.13
2022-10-22T09:13:33.726Z,4.80
2022-10-22T09:16:13.727Z,5.07
2022-10-22T09:18:50.165Z,4.90
2022-10-22T09:21:30.475Z,4.80
2022-10-22T09:24:32.140Z,4.73
2022-10-22T09:27:01.980Z,4.93
2022-10-22T09:29:33.852Z,5.17
2022-10-22T09:32:01.667Z,4.00
2022-10-22T09:34:31.619Z,4.10
2022-10-22T09:37:05.233Z,4.90
2022-10-22T09:39:45.810Z,4.50
2022-10-22T09:42:18.053Z,4.40
2022-10-22T09:44:54.865Z,4.27
2022-10-22T09:48:01.002Z,4.10
2022-10-22T09:50:49.532Z,4.30
2022-10-22T09:53:21.972Z,4.27
2022-10-22T09:55:52.978Z,3.33
2022-10-22T09:58:20.924Z,4.00
2022-10-22T10:00:59.290Z,3.93
2022-10-22T10:03:29.380Z,3.87
2022-10-22T10:06:02.952Z,4.20
2022-10-22T10:08:33.683Z,4.17
2022-10-22T10:11:06.098Z,3.67
2022-10-22T10:13:48.695Z,3.90
2022-10-22T10:16:45.264Z,3.20
2022-10-22T10:19:31.293Z,4.77
2022-10-22T10:22:24.203Z,3.97
2022-10-22T10:25:26.988Z,3.73
2022-10-22T10:28:15.307Z,3.40
2022-10-22T10:31:10.937Z,3.50
2022-10-22T10:34:14.841Z,3.70
2022-10-22T10:37:01.432Z,3.50
2022-10-22T10:39:53.889Z,3.90
2022-10-22T10:42:39.152Z,3.33
2022-10-22T10:45:23.668Z,2.67
2022-10-22T10:48:04.250Z,3.40
2022-10-22T10:50:39.165Z,3.40
2022-10-22T10:53:54.929Z,3.20
2022-10-22T10:56:39.711Z,3.83
2022-10-22T10:59:38.773Z,3.13
2022-10-22T11:02:22.364Z,3.10
2022-10-22T11:05:07.451Z,3.33
2022-10-22T11:07:42.085Z,3.47
2022-10-22T11:10:18.551Z,3.10
2022-10-22T11:12:51.607Z,3.33
2022-10-22T11:15:35.545Z,3.83
2022-10-22T11:18:19.159Z,3.60
2022-10-22T11:20:54.107Z,3.27
2022-10-22T11:23:39.800Z,3.33
2022-10-22T11:26:15.603Z,3.63
2022-10-22T11:28:49.979Z,3.70
2022-10-22T11:31:18.847Z,3.73
2022-10-22T11:34:09.755Z,3.90
2022-10-22T11:36:43.745Z,4.17
2022-10-22T11:39:42.863Z,3.73
2022-10-22T11:42:19.197Z,4.90
2022-10-22T11:44:48.813Z,3.10
2022-10-22T11:47:23.834Z,2.90
2022-10-22T11:49:59.392Z,2.83
2022-10-22T11:52:32.993Z,2.83
2022-10-22T11:55:51.888Z,2.70
2022-10-22T11:58:39.087Z,3.43
2022-10-22T12:01:09.506Z,2.73
2022-10-22T12:03:58.415Z,3.23
2022-10-22T12:06:28.013Z,3.20
2022-10-22T12:09:00.759Z,3.77
2022-10-22T12:11:47.668Z,3.27
2022-10-22T12:14:24.314Z,3.17
2022-10-22T12:17:19.497Z,3.17
2022-10-22T12:20:16.995Z,2.90
2022-10-22T12:23:25.939Z,2.73
2022-10-22T12:31:49.033Z,3.00
2022-10-22T12:38:22.824Z,3.23
2022-10-22T12:41:04.132Z,3.30
2022-10-22T12:43:35.904Z,2.80
2022-10-22T12:46:13.866Z,3.50
2022-10-22T12:48:44.222Z,3.33
2022-10-22T12:51:18.742Z,3.10
2022-10-22T12:53:55.820Z,3.43
2022-10-22T12:56:40.145Z,3.43
2022-10-22T12:59:40.188Z,3.60
2022-10-22T13:02:24.632Z,3.73
2022-10-22T13:05:33.998Z,3.60
2022-10-22T13:08:13.066Z,3.40
2022-10-22T13:10:42.231Z,3.03
2022-10-22T13:13:30.553Z,3.20
2022-10-22T13:16:33.144Z,3.03
2022-10-22T13:19:00.563Z,3.50
2022-10-22T13:21:54.623Z,3.70
2022-10-22T13:24:24.467Z,3.77
2022-10-22T13:26:55.067Z,3.30
2022-10-22T13:29:24.038Z,2.90
2022-10-22T13:31:53.745Z,3.30
2022-10-22T13:34:24.232Z,4.00
2022-10-22T13:36:52.339Z,3.73
2022-10-22T13:39:22.080Z,4.20
2022-10-22T13:41:50.654Z,3.90
2022-10-22T13:44:19.600Z,4.17
2022-10-22T13:46:48.389Z,4.10
2022-10-22T13:49:18.419Z,3.67
2022-10-22T13:51:46.380Z,3.60
2022-10-22T13:54:27.380Z,3.97
2022-10-22T13:56:54.731Z,3.70
2022-10-22T13:59:23.816Z,3.90
2022-10-22T14:01:52.111Z,3.27
2022-10-22T14:04:19.942Z,3.47
2022-10-22T14:06:47.249Z,3.57
2022-10-22T14:09:15.783Z,3.80
2022-10-22T14:11:43.317Z,3.77
2022-10-22T14:14:14.114Z,4.00
2022-10-22T14:16:41.753Z,4.47
2022-10-22T14:19:16.278Z,3.50
2022-10-22T14:21:43.985Z,3.87
2022-10-22T14:24:13.191Z,3.40
2022-10-22T14:26:40.988Z,3.70
2022-10-22T14:29:09.933Z,3.63
2022-10-22T14:34:15.514Z,4.73
2022-10-22T14:36:46.255Z,4.30
2022-10-22T14:39:14.227Z,5.23
2022-10-22T14:41:42.428Z,4.53
2022-10-22T14:44:13.786Z,4.43
2022-10-22T14:46:43.889Z,4.90
2022-10-22T14:49:11.299Z,4.40
2022-10-22T14:51:41.162Z,5.77
2022-10-22T14:54:08.861Z,4.10
2022-10-22T14:56:38.446Z,6.73
2022-10-22T14:59:06.180Z,4.87
2022-10-22T15:01:33.892Z,5.37
2022-10-22T15:04:28.197Z,5.00
2022-10-22T15:06:56.483Z,4.20
2022-10-22T15:09:28.212Z,3.67
2022-10-22T15:11:59.227Z,3.50
2022-10-22T15:14:29.621Z,3.90
2022-10-22T15:16:59.332Z,3.90
2022-10-22T15:19:26.922Z,3.53
2022-10-22T15:21:57.283Z,3.60
2022-10-22T15:24:25.379Z,3.80
2022-10-22T15:26:54.828Z,4.30
2022-10-22T15:29:22.326Z,4.23
2022-10-22T15:31:52.390Z,4.97
2022-10-22T15:34:28.719Z,4.60
2022-10-22T15:36:58.616Z,4.20
2022-10-22T15:39:26.966Z,4.73
2022-10-22T15:41:57.425Z,4.30
2022-10-22T15:44:30.217Z,4.23
2022-10-22T15:46:58.698Z,6.33
2022-10-22T15:49:28.253Z,4.57
2022-10-22T15:51:59.132Z,4.83
2022-10-22T15:54:28.911Z,8.37
2022-10-22T15:57:03.512Z,4.43
2022-10-22T15:59:54.538Z,11.07
2022-10-22T16:02:25.030Z,4.60
2022-10-22T16:04:55.592Z,4.30
2022-10-22T16:07:36.358Z,4.73
2022-10-22T16:15:00.466Z,4.50
2022-10-22T16:18:07.205Z,4.20
2022-10-22T16:20:52.873Z,4.53
2022-10-22T16:23:38.940Z,4.23
2022-10-22T16:26:14.204Z,4.50
2022-10-22T16:28:58.194Z,3.83
2022-10-22T16:31:31.521Z,4.13
2022-10-22T16:34:03.222Z,4.20
2022-10-22T16:36:33.612Z,3.83
2022-10-22T16:39:01.020Z,4.30
2022-10-22T16:41:34.887Z,4.33
2022-10-22T16:44:04.625Z,3.80
2022-10-22T16:46:33.618Z,4.20
2022-10-22T16:49:00.960Z,3.93
2022-10-22T16:51:28.817Z,4.27
2022-10-22T16:53:58.811Z,4.07
2022-10-22T16:56:26.555Z,4.23
2022-10-22T16:58:56.630Z,4.93
2022-10-22T17:01:26.596Z,4.23
2022-10-22T17:03:57.821Z,4.80
2022-10-22T17:06:25.837Z,5.63
2022-10-22T17:08:53.745Z,6.33
2022-10-22T17:11:23.804Z,9.20
2022-10-22T17:13:54.234Z,8.83
2022-10-22T17:16:25.221Z,7.20
2022-10-22T17:18:58.032Z,6.50
2022-10-22T17:21:25.693Z,7.50
2022-10-22T17:23:57.217Z,9.63
2022-10-22T17:26:26.834Z,9.37
2022-10-22T17:29:09.203Z,8.93
2022-10-22T17:31:38.157Z,8.80
2022-10-22T17:34:08.437Z,8.60
2022-10-22T17:36:36.479Z,8.90
2022-10-22T17:39:08.076Z,8.03
2022-10-22T17:41:37.149Z,10.27
2022-10-22T17:44:09.017Z,12.83
2022-10-22T17:46:37.977Z,10.20
2022-10-22T17:49:12.377Z,19.77
2022-10-22T17:51:40.354Z,14.20
2022-10-22T17:54:09.922Z,10.93
2022-10-22T17:56:40.236Z,11.33
2022-10-22T17:59:12.546Z,11.33
2022-10-22T18:01:45.139Z,12.30
2022-10-22T18:04:15.973Z,11.50
2022-10-22T18:06:43.735Z,12.03
2022-10-22T18:09:17.226Z,8.83
2022-10-22T18:11:52.890Z,7.97
2022-10-22T18:14:22.245Z,7.40
2022-10-22T18:16:51.604Z,7.33
2022-10-22T18:19:28.455Z,7.77
2022-10-22T18:21:57.539Z,7.80
2022-10-22T18:25:48.054Z,9.10
2022-10-22T18:33:05.015Z,8.63
2022-10-22T18:35:36.263Z,10.07
2022-10-22T18:38:19.767Z,9.47
2022-10-22T18:40:49.315Z,7.80
2022-10-22T18:43:20.211Z,7.97
2022-10-22T18:45:50.437Z,8.33
2022-10-22T18:48:28.874Z,7.60
2022-10-22T18:51:15.893Z,7.40
2022-10-22T18:54:31.578Z,8.00
2022-10-22T18:57:05.169Z,7.60
2022-10-22T18:59:41.643Z,7.10
2022-10-22T19:02:09.783Z,7.07
2022-10-22T19:04:37.565Z,7.50
2022-10-22T19:07:05.689Z,6.93
2022-10-22T19:09:40.483Z,7.93
2022-10-22T19:12:25.939Z,8.73
2022-10-22T19:14:59.811Z,7.50
2022-10-22T19:17:28.048Z,11.07
2022-10-22T19:19:55.473Z,23.60
2022-10-22T19:22:23.071Z,10.17
2022-10-22T19:24:50.726Z,7.83
2022-10-22T19:27:20.245Z,8.93
2022-10-22T19:29:49.650Z,9.63
2022-10-22T19:32:20.022Z,9.27
2022-10-22T19:34:47.553Z,9.10
2022-10-22T19:37:15.647Z,9.13
2022-10-22T19:39:43.250Z,8.47
2022-10-22T19:42:10.727Z,7.97
2022-10-22T19:44:38.157Z,8.40
2022-10-22T19:47:05.873Z,8.67
2022-10-22T19:49:33.362Z,9.27
2022-10-22T19:52:00.667Z,8.33
2022-10-22T19:54:27.965Z,9.20
2022-10-22T19:56:56.365Z,8.50
2022-10-22T19:59:27.269Z,8.33
2022-10-22T20:01:57.180Z,7.50
2022-10-22T20:04:26.940Z,8.30
2022-10-22T20:06:56.758Z,8.87
2022-10-22T20:09:24.880Z,8.20
2022-10-22T20:11:52.313Z,8.57
2022-10-22T20:14:19.726Z,7.80
2022-10-22T20:16:47.061Z,8.53
2022-10-22T20:19:16.123Z,7.43
2022-10-22T20:21:44.920Z,8.07
2022-10-22T20:24:17.714Z,7.87
2022-10-22T20:26:48.003Z,8.23
2022-10-22T20:29:20.995Z,8.17
2022-10-22T20:31:52.420Z,7.23
2022-10-22T20:34:20.111Z,6.73
2022-10-22T20:36:47.806Z,7.60
2022-10-22T20:39:16.807Z,7.73
2022-10-22T20:41:44.260Z,7.30
2022-10-22T20:44:15.479Z,7.47
2022-10-22T20:46:44.022Z,7.47
2022-10-22T20:49:15.249Z,7.87
2022-10-22T20:51:42.938Z,7.13
2022-10-22T20:54:11.713Z,10.73
2022-10-22T20:56:40.393Z,9.20
2022-10-22T20:59:11.083Z,8.23
2022-10-22T21:02:00.714Z,8.83
2022-10-22T21:04:30.070Z,9.27
2022-10-22T21:06:57.790Z,9.13
2022-10-22T21:09:25.450Z,9.00
2022-10-22T21:11:58.254Z,8.00
2022-10-22T21:14:26.192Z,7.97
2022-10-22T21:17:03.953Z,8.03
2022-10-22T21:19:31.582Z,9.00
2022-10-22T21:22:03.875Z,7.90
2022-10-22T21:24:41.257Z,8.13
2022-10-22T21:27:34.103Z,8.80
2022-10-22T21:30:25.177Z,8.73
2022-10-22T21:33:08.734Z,8.23
2022-10-22T21:35:54.681Z,8.67
2022-10-22T21:38:31.987Z,8.73
2022-10-22T21:41:37.076Z,8.40
2022-10-22T21:44:07.335Z,9.33
2022-10-22T21:46:35.884Z,8.80
2022-10-22T21:49:04.736Z,8.03
2022-10-22T21:51:38.130Z,13.63
2022-10-22T21:54:06.140Z,9.30
2022-10-22T21:56:35.738Z,8.77
2022-10-22T21:59:04.767Z,9.80
2022-10-22T22:01:32.875Z,8.97
2022-10-22T22:04:00.634Z,9.23
2022-10-22T22:06:33.158Z,8.93
2022-10-22T22:09:03.718Z,9.03
2022-10-22T22:11:31.702Z,8.57
2022-10-22T22:13:59.567Z,7.43
2022-10-22T22:16:31.039Z,7.77
2022-10-22T22:19:00.456Z,8.80
2022-10-22T22:21:28.778Z,9.20
2022-10-22T22:23:57.771Z,8.03
2022-10-22T22:26:29.633Z,7.67
2022-10-22T22:29:01.044Z,8.13
2022-10-22T22:31:34.061Z,8.03
2022-10-22T22:34:04.742Z,6.90
2022-10-22T22:36:37.885Z,7.80
2022-10-22T22:39:13.725Z,8.07
2022-10-22T22:41:42.573Z,7.73
2022-10-22T22:44:10.441Z,6.50
2022-10-22T22:46:38.249Z,7.43
2022-10-22T22:49:06.037Z,8.00
2022-10-22T22:51:33.674Z,7.87
2022-10-22T22:54:01.722Z,6.47
2022-10-22T22:56:32.150Z,6.47
2022-10-22T22:58:59.604Z,6.60
2022-10-22T23:01:30.418Z,6.77
2022-10-22T23:04:03.948Z,6.67
2022-10-22T23:06:37.006Z,6.93
2022-10-22T23:09:07.403Z,6.87
2022-10-22T23:11:35.043Z,7.27
2022-10-22T23:14:06.280Z,6.70
2022-10-22T23:16:36.614Z,6.10
2022-10-22T23:19:08.096Z,6.70
2022-10-22T23:21:38.446Z,6.37
2022-10-22T23:24:09.699Z,6.30
2022-10-22T23:26:39.789Z,5.83
2022-10-22T23:29:16.490Z,6.87
2022-10-22T23:31:44.894Z,6.83
2022-10-22T23:34:15.428Z,6.30
2022-10-22T23:36:42.874Z,6.07
2022-10-22T23:39:13.858Z,6.23
2022-10-22T23:41:41.631Z,6.13
2022-10-22T23:44:09.999Z,5.70
2022-10-22T23:46:40.595Z,5.93
2022-10-22T23:49:09.036Z,5.83
2022-10-22T23:51:36.530Z,6.27
2022-10-22T23:54:06.621Z,6.33
2022-10-22T23:56:34.518Z,6.33
2022-10-22T23:59:02.837Z,6.30
